createdAt,value
2023-10-23T00:01:01.488Z,6.43
2023-10-23T00:03:30.000Z,7.28
2023-10-23T00:05:58.196Z,6.88
2023-10-23T00:08:26.746Z,6.63
2023-10-23T00:10:56.439Z,6.07
2023-10-23T00:13:24.357Z,6.80
2023-10-23T00:15:52.468Z,6.38
2023-10-23T00:18:20.485Z,6.32
2023-10-23T00:20:49.086Z,7.45
2023-10-23T00:23:16.991Z,6.65
2023-10-23T00:25:44.784Z,7.05
2023-10-23T00:28:14.123Z,6.70
2023-10-23T00:30:42.109Z,6.88
2023-10-23T00:33:10.213Z,6.97
2023-10-23T00:35:38.412Z,6.78
2023-10-23T00:38:06.421Z,6.90
2023-10-23T00:40:34.213Z,7.00
2023-10-23T00:43:14.369Z,6.78
2023-10-23T00:45:47.075Z,7.00
2023-10-23T00:48:15.174Z,6.95
2023-10-23T00:50:43.337Z,7.13
2023-10-23T00:53:11.375Z,6.72
2023-10-23T00:55:39.288Z,7.68
2023-10-23T00:58:07.308Z,6.90
2023-10-23T01:00:38.306Z,7.03
2023-10-23T01:03:06.790Z,6.18
2023-10-23T01:05:35.844Z,7.40
2023-10-23T01:08:03.923Z,7.05
2023-10-23T01:10:31.917Z,6.68
2023-10-23T01:12:59.973Z,7.38
2023-10-23T01:15:28.422Z,7.35
2023-10-23T01:17:57.807Z,6.80
2023-10-23T01:20:25.926Z,7.13
2023-10-23T01:22:56.077Z,7.28
2023-10-23T01:25:26.424Z,6.93
2023-10-23T01:27:54.312Z,7.78
2023-10-23T01:30:22.894Z,7.25
2023-10-23T01:32:51.154Z,7.03
2023-10-23T01:35:20.728Z,7.20
2023-10-23T01:37:48.774Z,7.28
2023-10-23T01:40:17.125Z,7.78
2023-10-23T01:42:48.264Z,7.88
2023-10-23T01:45:16.268Z,7.00
2023-10-23T01:47:44.273Z,7.82
2023-10-23T01:50:12.338Z,7.82
2023-10-23T01:52:42.560Z,7.60
2023-10-23T01:55:10.607Z,7.40
2023-10-23T01:57:38.476Z,7.50
2023-10-23T02:00:11.619Z,7.25
2023-10-23T02:02:43.430Z,7.22
2023-10-23T02:05:11.375Z,7.32
2023-10-23T02:07:39.218Z,7.38
2023-10-23T02:10:08.528Z,7.65
2023-10-23T02:12:36.435Z,7.35
2023-10-23T02:15:05.393Z,7.30
2023-10-23T02:17:34.913Z,7.13
2023-10-23T02:20:03.562Z,7.65
2023-10-23T02:22:31.589Z,7.30
2023-10-23T02:24:59.676Z,6.68
2023-10-23T02:27:27.658Z,7.40
2023-10-23T02:29:56.080Z,6.95
2023-10-23T02:32:23.986Z,6.45
2023-10-23T02:34:53.360Z,7.28
2023-10-23T02:37:21.345Z,6.82
2023-10-23T02:39:49.452Z,7.10
2023-10-23T02:42:17.522Z,6.55
2023-10-23T02:44:45.678Z,7.30
2023-10-23T02:47:13.495Z,7.40
2023-10-23T02:49:41.878Z,7.68
2023-10-23T02:52:11.248Z,7.05
2023-10-23T02:54:39.369Z,7.20
2023-10-23T02:57:08.628Z,6.88
2023-10-23T02:59:36.521Z,6.50
2023-10-23T03:02:05.164Z,7.10
2023-10-23T03:04:35.280Z,6.95
2023-10-23T03:07:03.262Z,6.90
2023-10-23T03:09:32.671Z,6.70
2023-10-23T03:12:00.859Z,6.50
2023-10-23T03:14:28.920Z,7.18
2023-10-23T03:16:56.816Z,6.63
2023-10-23T03:19:26.681Z,6.78
2023-10-23T03:21:55.083Z,6.72
2023-10-23T03:24:23.133Z,6.50
2023-10-23T03:26:52.315Z,6.20
2023-10-23T03:29:20.181Z,6.90
2023-10-23T03:31:48.250Z,7.43
2023-10-23T03:34:17.729Z,7.68
2023-10-23T03:36:46.350Z,7.15
2023-10-23T03:39:14.397Z,6.65
2023-10-23T03:41:43.678Z,7.07
2023-10-23T03:44:13.126Z,7.07
2023-10-23T03:46:42.134Z,6.60
2023-10-23T03:49:11.096Z,6.35
2023-10-23T03:51:38.955Z,7.18
2023-10-23T03:54:07.176Z,7.30
2023-10-23T03:56:35.641Z,6.90
2023-10-23T03:59:04.128Z,7.63
2023-10-23T04:01:33.349Z,7.57
2023-10-23T04:04:01.453Z,8.05
2023-10-23T04:06:29.636Z,8.52
2023-10-23T04:08:58.196Z,9.25
2023-10-23T04:11:27.547Z,10.02
2023-10-23T04:13:55.554Z,10.05
2023-10-23T04:16:23.497Z,10.40
2023-10-23T04:18:52.944Z,10.55
2023-10-23T04:21:22.169Z,9.98
2023-10-23T04:23:50.154Z,10.55
2023-10-23T04:26:18.047Z,10.38
2023-10-23T04:28:46.034Z,10.48
2023-10-23T04:31:13.965Z,10.40
2023-10-23T04:33:41.963Z,12.60
2023-10-23T04:36:11.337Z,12.10
2023-10-23T04:38:39.156Z,12.23
2023-10-23T04:41:07.022Z,12.70
2023-10-23T04:43:36.710Z,13.02
2023-10-23T04:46:04.701Z,12.75
2023-10-23T04:48:33.036Z,13.50
2023-10-23T04:51:01.685Z,12.63
2023-10-23T04:53:31.421Z,12.55
2023-10-23T04:56:00.750Z,12.52
2023-10-23T04:58:28.718Z,12.57
2023-10-23T05:00:57.209Z,12.43
2023-10-23T05:03:25.227Z,12.57
2023-10-23T05:05:53.199Z,11.45
2023-10-23T05:08:21.035Z,13.40
2023-10-23T05:10:50.277Z,11.52
2023-10-23T05:13:18.237Z,11.15
2023-10-23T05:15:46.361Z,10.38
2023-10-23T05:18:14.234Z,10.15
2023-10-23T05:20:42.436Z,10.60
2023-10-23T05:23:10.294Z,9.85
2023-10-23T05:25:38.556Z,10.80
2023-10-23T05:28:07.840Z,10.70
2023-10-23T05:30:35.912Z,10.55
2023-10-23T05:33:04.657Z,10.05
2023-10-23T05:35:32.830Z,10.35
2023-10-23T05:38:00.730Z,10.85
2023-10-23T05:40:28.839Z,9.50
2023-10-23T05:42:56.809Z,8.75
2023-10-23T05:45:26.250Z,9.68
2023-10-23T05:47:54.226Z,11.20
2023-10-23T05:50:22.116Z,9.50
2023-10-23T05:52:49.933Z,9.82
2023-10-23T05:55:17.996Z,10.10
2023-10-23T05:57:46.687Z,9.70
2023-10-23T06:00:16.869Z,10.82
2023-10-23T06:02:46.321Z,8.90
2023-10-23T06:05:14.136Z,9.10
2023-10-23T06:07:42.549Z,10.00
2023-10-23T06:10:11.126Z,8.45
2023-10-23T06:12:39.181Z,8.65
2023-10-23T06:15:09.169Z,9.00
2023-10-23T06:17:37.260Z,8.73
2023-10-23T06:20:07.943Z,9.85
2023-10-23T06:22:35.971Z,9.55
2023-10-23T06:25:05.425Z,9.65
2023-10-23T06:27:33.503Z,7.80
2023-10-23T06:30:01.417Z,9.32
2023-10-23T06:32:29.612Z,8.52
2023-10-23T06:34:57.650Z,8.38
2023-10-23T06:37:26.955Z,8.95
2023-10-23T06:39:55.024Z,9.18
2023-10-23T06:42:23.205Z,10.57
2023-10-23T06:44:51.195Z,8.75
2023-10-23T06:47:19.236Z,9.32
2023-10-23T06:49:47.388Z,9.05
2023-10-23T06:52:15.760Z,9.18
2023-10-23T06:54:45.112Z,9.98
2023-10-23T06:57:13.164Z,9.18
2023-10-23T06:59:41.626Z,8.85
2023-10-23T07:02:10.299Z,9.02
2023-10-23T07:04:38.536Z,8.77
2023-10-23T07:07:17.928Z,8.32
2023-10-23T07:10:00.664Z,9.43
2023-10-23T07:12:29.290Z,8.93
2023-10-23T07:14:57.282Z,9.23
2023-10-23T07:17:25.424Z,9.40
2023-10-23T07:19:53.410Z,10.02
2023-10-23T07:22:22.438Z,10.05
2023-10-23T07:24:50.434Z,11.23
2023-10-23T07:27:19.891Z,12.27
2023-10-23T07:29:48.907Z,12.05
2023-10-23T07:32:17.061Z,11.55
2023-10-23T07:34:45.099Z,10.55
2023-10-23T07:37:19.405Z,10.13
2023-10-23T07:39:48.941Z,9.93
2023-10-23T07:42:16.835Z,10.57
2023-10-23T07:44:46.304Z,10.52
2023-10-23T07:47:14.606Z,9.25
2023-10-23T07:49:42.532Z,8.00
2023-10-23T07:52:10.722Z,8.60
2023-10-23T07:54:38.561Z,7.43
2023-10-23T07:57:06.774Z,8.10
2023-10-23T07:59:34.768Z,7.50
2023-10-23T08:02:04.477Z,7.28
2023-10-23T08:04:33.262Z,7.75
2023-10-23T08:07:02.921Z,7.15
2023-10-23T08:09:30.869Z,6.50
2023-10-23T08:11:58.880Z,6.70
2023-10-23T08:14:26.902Z,7.35
2023-10-23T08:16:55.059Z,7.13
2023-10-23T08:19:24.634Z,6.18
2023-10-23T08:21:53.567Z,6.93
2023-10-23T08:24:21.623Z,6.10
2023-10-23T08:26:49.577Z,7.25
2023-10-23T08:29:17.462Z,7.50
2023-10-23T08:31:45.842Z,8.77
2023-10-23T08:34:14.001Z,7.35
2023-10-23T08:36:43.448Z,8.20
2023-10-23T08:39:11.975Z,8.10
2023-10-23T08:41:42.522Z,9.13
2023-10-23T08:44:11.655Z,11.10
2023-10-23T08:46:40.182Z,9.05
2023-10-23T08:49:08.521Z,10.35
2023-10-23T08:51:36.418Z,9.00
2023-10-23T08:54:12.228Z,8.40
2023-10-23T08:56:41.544Z,7.95
2023-10-23T08:59:12.159Z,8.27
2023-10-23T09:01:40.459Z,9.10
2023-10-23T09:04:11.660Z,9.20
2023-10-23T09:06:40.192Z,7.78
2023-10-23T09:09:10.207Z,8.63
2023-10-23T09:11:44.834Z,9.23
2023-10-23T09:14:13.936Z,9.30
2023-10-23T09:16:42.020Z,9.18
2023-10-23T09:19:10.104Z,8.15
2023-10-23T09:21:38.124Z,8.25
2023-10-23T09:24:07.602Z,9.38
2023-10-23T09:26:37.099Z,9.18
2023-10-23T09:29:04.985Z,7.82
2023-10-23T09:31:33.179Z,8.90
2023-10-23T09:34:02.427Z,7.63
2023-10-23T09:36:32.999Z,8.40
2023-10-23T09:39:02.200Z,8.77
2023-10-23T09:41:31.452Z,8.38
2023-10-23T09:44:01.949Z,9.13
2023-10-23T09:46:31.096Z,8.95
2023-10-23T09:49:03.817Z,8.35
2023-10-23T09:51:38.227Z,9.45
2023-10-23T09:56:37.365Z,9.07
2023-10-23T09:59:09.927Z,9.68
2023-10-23T10:01:39.179Z,9.25
2023-10-23T10:04:13.865Z,10.18
2023-10-23T10:06:44.574Z,10.43
2023-10-23T10:09:14.519Z,8.73
2023-10-23T10:11:45.027Z,8.30
2023-10-23T10:14:14.521Z,8.80
2023-10-23T10:16:42.832Z,7.72
2023-10-23T10:19:11.155Z,8.43
2023-10-23T10:21:46.871Z,9.15
2023-10-23T10:24:15.848Z,7.88
2023-10-23T10:26:43.812Z,7.57
2023-10-23T10:29:12.506Z,8.95
2023-10-23T10:32:11.719Z,7.43
2023-10-23T10:34:56.157Z,7.35
2023-10-23T10:37:27.129Z,7.85
2023-10-23T10:40:06.304Z,8.02
2023-10-23T10:42:39.584Z,6.32
2023-10-23T10:45:18.242Z,6.88
2023-10-23T10:47:53.873Z,7.22
2023-10-23T10:50:39.941Z,7.18
2023-10-23T10:53:10.538Z,6.97
2023-10-23T10:55:38.881Z,6.65
2023-10-23T10:58:07.771Z,6.50
2023-10-23T11:00:39.052Z,5.75
2023-10-23T11:03:09.870Z,5.57
2023-10-23T11:05:39.327Z,5.38
2023-10-23T11:08:10.258Z,5.47
2023-10-23T11:10:38.387Z,6.57
2023-10-23T11:13:06.837Z,7.25
2023-10-23T11:15:35.028Z,6.20
2023-10-23T11:18:03.691Z,6.13
2023-10-23T11:20:33.193Z,6.90
2023-10-23T11:23:01.925Z,5.88
2023-10-23T11:25:30.246Z,6.07
2023-10-23T11:27:58.124Z,6.35
2023-10-23T11:30:27.074Z,5.47
2023-10-23T11:32:55.028Z,6.30
2023-10-23T11:35:24.287Z,5.90
2023-10-23T11:37:53.472Z,5.15
2023-10-23T11:40:23.282Z,5.25
2023-10-23T11:42:55.098Z,5.35
2023-10-23T11:45:23.562Z,5.47
2023-10-23T11:47:52.415Z,5.78
2023-10-23T11:50:22.878Z,5.88
2023-10-23T11:52:51.425Z,5.60
2023-10-23T11:55:21.401Z,5.97
2023-10-23T11:57:52.090Z,6.18
2023-10-23T12:00:22.240Z,5.90
2023-10-23T12:02:50.970Z,5.75
2023-10-23T12:05:20.586Z,6.45
2023-10-23T12:07:50.185Z,6.90
2023-10-23T12:10:20.206Z,5.18
2023-10-23T12:12:49.038Z,6.28
2023-10-23T12:15:17.600Z,6.65
2023-10-23T12:17:45.635Z,6.07
2023-10-23T12:20:15.561Z,6.65
2023-10-23T12:22:44.779Z,6.47
2023-10-23T12:25:13.063Z,6.32
2023-10-23T12:27:42.960Z,6.95
2023-10-23T12:30:15.034Z,8.23
2023-10-23T12:33:17.198Z,8.20
2023-10-23T12:35:32.992Z,7.07
2023-10-23T12:38:00.929Z,7.75
2023-10-23T12:40:31.715Z,7.75
2023-10-23T12:43:03.302Z,8.13
2023-10-23T12:45:31.313Z,7.03
2023-10-23T12:47:59.385Z,6.97
2023-10-23T12:50:27.231Z,7.55
2023-10-23T12:52:55.449Z,7.43
2023-10-23T12:55:23.362Z,6.68
2023-10-23T12:57:51.627Z,7.00
2023-10-23T13:00:21.201Z,6.25
2023-10-23T13:02:49.236Z,6.15
2023-10-23T13:05:17.935Z,6.70
2023-10-23T13:07:46.048Z,5.68
2023-10-23T13:10:14.087Z,6.60
2023-10-23T13:12:42.101Z,6.50
2023-10-23T13:15:10.512Z,4.68
2023-10-23T13:17:39.999Z,4.57
2023-10-23T13:21:29.056Z,4.93
2023-10-23T13:22:59.284Z,4.50
2023-10-23T13:25:27.228Z,4.40
2023-10-23T13:27:57.063Z,3.67
2023-10-23T13:30:25.116Z,4.10
2023-10-23T13:32:54.595Z,4.65
2023-10-23T13:35:22.592Z,4.32
2023-10-23T13:37:50.503Z,4.45
2023-10-23T13:40:22.001Z,4.57
2023-10-23T13:42:50.658Z,3.95
2023-10-23T13:45:18.600Z,3.80
2023-10-23T13:47:46.699Z,3.90
2023-10-23T13:50:16.053Z,4.30
2023-10-23T13:52:42.998Z,3.90
2023-10-23T13:55:12.048Z,4.32
2023-10-23T13:57:40.096Z,4.75
2023-10-23T14:00:10.841Z,4.50
2023-10-23T14:02:41.729Z,4.85
2023-10-23T14:05:10.595Z,6.55
2023-10-23T14:07:39.933Z,7.80
2023-10-23T14:10:08.611Z,7.97
2023-10-23T14:12:36.538Z,7.68
2023-10-23T14:15:06.210Z,7.10
2023-10-23T14:17:36.385Z,6.93
2023-10-23T14:20:04.775Z,6.47
2023-10-23T14:22:32.690Z,7.72
2023-10-23T14:25:02.562Z,6.43
2023-10-23T14:27:30.544Z,6.45
2023-10-23T14:29:58.568Z,6.85
2023-10-23T14:32:26.687Z,6.55
2023-10-23T14:34:55.038Z,7.22
2023-10-23T14:37:22.995Z,7.13
2023-10-23T14:39:51.103Z,7.10
2023-10-23T14:42:20.527Z,9.52
2023-10-23T14:44:48.393Z,10.50
2023-10-23T14:47:16.648Z,10.50
2023-10-23T14:49:44.833Z,8.75
2023-10-23T14:52:13.063Z,7.93
2023-10-23T14:54:41.193Z,8.02
2023-10-23T14:57:09.025Z,8.27
2023-10-23T14:59:38.523Z,8.13
2023-10-23T15:02:06.599Z,7.95
2023-10-23T15:04:37.105Z,8.07
2023-10-23T15:07:06.028Z,7.80
2023-10-23T15:09:33.975Z,7.60
2023-10-23T15:12:01.915Z,7.72
2023-10-23T15:14:29.738Z,6.75
2023-10-23T15:16:59.789Z,6.57
2023-10-23T15:19:27.941Z,7.85
2023-10-23T15:21:56.375Z,7.88
2023-10-23T15:24:24.278Z,8.80
2023-10-23T15:26:52.162Z,8.88
2023-10-23T15:29:20.109Z,7.93
2023-10-23T15:31:48.252Z,8.00
2023-10-23T15:34:17.791Z,7.63
2023-10-23T15:36:46.451Z,7.20
2023-10-23T15:39:14.317Z,6.70
2023-10-23T15:41:42.343Z,7.88
2023-10-23T15:44:10.263Z,7.47
2023-10-23T15:46:38.236Z,7.47
2023-10-23T15:49:05.323Z,7.38
2023-10-23T15:51:34.789Z,6.90
2023-10-23T15:54:02.681Z,7.30
2023-10-23T15:56:30.824Z,7.07
2023-10-23T15:58:59.087Z,6.55
2023-10-23T16:01:27.465Z,6.95
2023-10-23T16:03:55.592Z,7.00
2023-10-23T16:06:23.805Z,6.40
2023-10-23T16:08:53.205Z,6.97
2023-10-23T16:11:21.624Z,7.20
2023-10-23T16:13:49.804Z,7.55
2023-10-23T16:16:18.278Z,7.07
2023-10-23T16:18:46.712Z,7.40
2023-10-23T16:21:15.884Z,6.70
2023-10-23T16:23:44.074Z,6.55
2023-10-23T16:26:13.495Z,7.40
2023-10-23T16:28:41.596Z,7.38
2023-10-23T16:31:15.047Z,7.60
2023-10-23T16:33:43.313Z,7.13
2023-10-23T16:36:11.385Z,8.27
2023-10-23T16:38:39.272Z,7.55
2023-10-23T16:41:07.278Z,8.20
2023-10-23T16:43:41.185Z,8.20
2023-10-23T16:48:37.304Z,7.85
2023-10-23T16:51:06.156Z,8.55
2023-10-23T16:53:35.549Z,8.38
2023-10-23T16:56:04.111Z,8.68
2023-10-23T16:58:32.033Z,8.73
2023-10-23T17:01:06.202Z,9.23
2023-10-23T17:03:36.375Z,10.05
2023-10-23T17:06:07.108Z,9.90
2023-10-23T17:08:35.508Z,9.60
2023-10-23T17:11:07.123Z,11.10
2023-10-23T17:13:35.122Z,10.48
2023-10-23T17:16:05.499Z,10.80
2023-10-23T17:18:34.522Z,11.73
2023-10-23T17:21:03.411Z,10.85
2023-10-23T17:23:32.547Z,11.60
2023-10-23T17:26:00.373Z,11.85
2023-10-23T17:28:28.612Z,12.18
2023-10-23T17:30:57.392Z,12.63
2023-10-23T17:33:26.937Z,13.23
2023-10-23T17:35:55.167Z,13.13
2023-10-23T17:38:23.327Z,13.20
2023-10-23T17:40:51.546Z,13.40
2023-10-23T17:43:20.679Z,12.63
2023-10-23T17:45:48.954Z,14.10
2023-10-23T17:48:17.634Z,13.32
2023-10-23T17:50:47.014Z,14.80
2023-10-23T17:53:15.116Z,15.32
2023-10-23T17:55:43.119Z,14.65
2023-10-23T17:58:11.130Z,14.75
2023-10-23T18:00:40.960Z,15.55
2023-10-23T18:03:09.119Z,15.38
2023-10-23T18:05:37.202Z,15.25
2023-10-23T18:08:06.705Z,16.00
2023-10-23T18:10:36.292Z,16.65
2023-10-23T18:13:05.733Z,16.45
2023-10-23T18:15:33.688Z,16.20
2023-10-23T18:18:01.677Z,16.58
2023-10-23T18:20:29.732Z,15.90
2023-10-23T18:23:00.387Z,16.33
2023-10-23T18:25:29.916Z,17.23
2023-10-23T18:27:57.967Z,17.70
2023-10-23T18:30:26.786Z,16.58
2023-10-23T18:32:54.675Z,16.42
2023-10-23T18:35:22.856Z,16.50
2023-10-23T18:37:50.855Z,15.50
2023-10-23T18:40:19.053Z,15.80
2023-10-23T18:42:48.559Z,16.50
2023-10-23T18:45:16.513Z,15.77
2023-10-23T18:47:44.598Z,15.90
2023-10-23T18:50:12.743Z,15.35
2023-10-23T18:52:40.630Z,15.88
2023-10-23T18:55:10.172Z,15.32
2023-10-23T18:57:38.172Z,15.60
2023-10-23T19:00:10.228Z,15.27
2023-10-23T19:02:38.483Z,15.35
2023-10-23T19:05:07.175Z,16.77
2023-10-23T19:07:35.219Z,16.38
2023-10-23T19:10:03.299Z,16.02
2023-10-23T19:12:31.232Z,15.77
2023-10-23T19:14:59.249Z,15.43
2023-10-23T19:17:39.587Z,16.80
2023-10-23T19:20:10.805Z,15.35
2023-10-23T19:22:39.922Z,16.15
2023-10-23T19:25:09.175Z,15.98
2023-10-23T19:27:37.033Z,15.02
2023-10-23T19:30:05.734Z,16.00
2023-10-23T19:32:35.608Z,16.63
2023-10-23T19:35:04.152Z,16.23
2023-10-23T19:37:33.049Z,16.55
2023-10-23T19:40:01.803Z,16.05
2023-10-23T19:42:37.133Z,15.73
2023-10-23T19:45:05.876Z,15.25
2023-10-23T19:47:36.000Z,15.82
2023-10-23T19:50:06.136Z,15.13
2023-10-23T19:52:36.388Z,16.20
2023-10-23T19:55:42.679Z,17.17
2023-10-23T19:57:53.733Z,16.63
2023-10-23T20:00:23.900Z,16.90
2023-10-23T20:02:53.480Z,17.15
2023-10-23T20:05:21.564Z,16.27
2023-10-23T20:07:50.293Z,16.15
2023-10-23T20:10:19.151Z,16.33
2023-10-23T20:12:47.370Z,16.30
2023-10-23T20:15:15.389Z,15.80
2023-10-23T20:17:43.442Z,15.60
2023-10-23T20:20:13.849Z,16.75
2023-10-23T20:22:41.817Z,16.70
2023-10-23T20:25:10.508Z,15.55
2023-10-23T20:27:38.541Z,16.25
2023-10-23T20:30:07.767Z,15.85
2023-10-23T20:32:35.916Z,16.08
2023-10-23T20:35:05.421Z,14.88
2023-10-23T20:37:35.289Z,14.93
2023-10-23T20:40:05.039Z,14.40
2023-10-23T20:42:33.754Z,14.95
2023-10-23T20:45:02.604Z,13.60
2023-10-23T20:47:30.975Z,14.10
2023-10-23T20:49:59.494Z,13.25
2023-10-23T20:52:27.627Z,13.82
2023-10-23T20:54:57.613Z,13.32
2023-10-23T20:57:26.105Z,13.40
2023-10-23T20:59:53.985Z,12.68
2023-10-23T21:02:21.991Z,13.07
2023-10-23T21:04:49.846Z,12.95
2023-10-23T21:07:18.130Z,13.30
2023-10-23T21:09:46.303Z,12.88
2023-10-23T21:12:15.499Z,12.30
2023-10-23T21:14:47.847Z,12.23
2023-10-23T21:17:15.925Z,12.32
2023-10-23T21:19:43.869Z,11.85
2023-10-23T21:22:12.301Z,12.13
2023-10-23T21:24:40.378Z,11.73
2023-10-23T21:27:08.346Z,11.80
2023-10-23T21:29:37.828Z,11.10
2023-10-23T21:32:06.542Z,11.15
2023-10-23T21:34:34.526Z,11.52
2023-10-23T21:37:02.622Z,11.02
2023-10-23T21:39:37.876Z,10.10
2023-10-23T21:42:06.432Z,9.70
2023-10-23T21:44:34.249Z,9.50
2023-10-23T21:47:03.847Z,9.48
2023-10-23T21:49:34.248Z,9.60
2023-10-23T21:52:02.965Z,9.35
2023-10-23T21:54:31.321Z,8.90
2023-10-23T21:57:21.893Z,8.55
2023-10-23T21:59:49.339Z,8.50
2023-10-23T22:02:19.179Z,7.88
2023-10-23T22:04:47.659Z,8.00
2023-10-23T22:07:15.927Z,8.02
2023-10-23T22:09:44.525Z,7.90
2023-10-23T22:12:13.490Z,6.88
2023-10-23T22:14:42.232Z,6.70
2023-10-23T22:17:10.457Z,7.28
2023-10-23T22:19:40.052Z,6.80
2023-10-23T22:22:08.189Z,6.40
2023-10-23T22:24:36.262Z,5.65
2023-10-23T22:27:04.241Z,5.70
2023-10-23T22:29:32.013Z,5.38
2023-10-23T22:31:59.925Z,4.85
2023-10-23T22:34:28.806Z,5.03
2023-10-23T22:37:46.433Z,4.45
2023-10-23T22:39:46.253Z,4.00
2023-10-23T22:42:14.135Z,3.70
2023-10-23T22:44:42.488Z,3.40
2023-10-23T22:47:10.833Z,3.55
2023-10-23T22:49:39.336Z,3.42
2023-10-23T22:52:09.618Z,3.60
2023-10-23T22:54:38.344Z,3.83
2023-10-23T22:57:08.785Z,3.22
2023-10-23T22:59:37.337Z,2.67
2023-10-23T23:02:05.970Z,2.75
2023-10-23T23:04:35.064Z,2.65
2023-10-23T23:07:04.632Z,2.92
2023-10-23T23:09:34.771Z,2.63
2023-10-23T23:12:03.278Z,2.67
2023-10-23T23:14:31.489Z,2.60
2023-10-23T23:17:03.854Z,2.65
2023-10-23T23:19:33.116Z,2.65
2023-10-23T23:22:06.567Z,2.78
2023-10-23T23:24:36.015Z,2.75
2023-10-23T23:27:04.104Z,2.67
2023-10-23T23:29:32.332Z,2.65
2023-10-23T23:32:00.420Z,2.63
2023-10-23T23:34:28.822Z,2.47
2023-10-23T23:36:56.864Z,2.63
2023-10-23T23:39:25.054Z,2.88
2023-10-23T23:41:54.867Z,2.50
2023-10-23T23:44:22.821Z,2.78
2023-10-23T23:46:50.915Z,2.58
2023-10-23T23:49:18.925Z,2.70
2023-10-23T23:51:46.820Z,2.65
2023-10-23T23:54:14.942Z,2.55
2023-10-23T23:56:42.834Z,3.00
2023-10-23T23:59:12.056Z,2.67
